sensor_id;sensor_type;location;lat;lon;timestamp;temperature;humidity
21108;DHT22;10712;52.944;9.098;2022-08-19T00:01:45;18.80;84.40
21108;DHT22;10712;52.944;9.098;2022-08-19T00:04:14;18.70;84.70
21108;DHT22;10712;52.944;9.098;2022-08-19T00:06:43;18.70;84.80
21108;DHT22;10712;52.944;9.098;2022-08-19T00:09:12;18.70;84.80
21108;DHT22;10712;52.944;9.098;2022-08-19T00:11:40;18.70;84.80
21108;DHT22;10712;52.944;9.098;2022-08-19T00:14:08;18.70;84.80
21108;DHT22;10712;52.944;9.098;2022-08-19T00:16:37;18.70;84.70
21108;DHT22;10712;52.944;9.098;2022-08-19T00:19:04;18.70;84.60
21108;DHT22;10712;52.944;9.098;2022-08-19T00:21:30;18.70;84.60
21108;DHT22;10712;52.944;9.098;2022-08-19T00:23:57;18.60;84.90
21108;DHT22;10712;52.944;9.098;2022-08-19T00:26:25;18.60;85.10
21108;DHT22;10712;52.944;9.098;2022-08-19T00:28:52;18.70;85.10
21108;DHT22;10712;52.944;9.098;2022-08-19T00:31:18;18.70;85.00
21108;DHT22;10712;52.944;9.098;2022-08-19T00:33:44;18.70;84.70
21108;DHT22;10712;52.944;9.098;2022-08-19T00:36:10;18.70;84.80
21108;DHT22;10712;52.944;9.098;2022-08-19T00:38:37;18.60;85.00
21108;DHT22;10712;52.944;9.098;2022-08-19T00:41:09;18.70;84.90
21108;DHT22;10712;52.944;9.098;2022-08-19T00:43:38;18.70;84.70
21108;DHT22;10712;52.944;9.098;2022-08-19T00:46:05;18.60;84.50
21108;DHT22;10712;52.944;9.098;2022-08-19T00:48:33;18.50;85.00
21108;DHT22;10712;52.944;9.098;2022-08-19T00:51:00;18.50;85.20
21108;DHT22;10712;52.944;9.098;2022-08-19T00:53:28;18.50;85.20
21108;DHT22;10712;52.944;9.098;2022-08-19T00:55:59;18.50;85.30
21108;DHT22;10712;52.944;9.098;2022-08-19T00:58:31;18.50;85.30
21108;DHT22;10712;52.944;9.098;2022-08-19T01:01:00;18.50;85.30
21108;DHT22;10712;52.944;9.098;2022-08-19T01:03:26;18.50;85.30
21108;DHT22;10712;52.944;9.098;2022-08-19T01:05:53;18.50;85.40
21108;DHT22;10712;52.944;9.098;2022-08-19T01:08:20;18.50;85.30
21108;DHT22;10712;52.944;9.098;2022-08-19T01:10:50;18.50;85.20
21108;DHT22;10712;52.944;9.098;2022-08-19T01:13:25;18.50;85.20
21108;DHT22;10712;52.944;9.098;2022-08-19T01:16:00;18.50;85.10
21108;DHT22;10712;52.944;9.098;2022-08-19T01:18:36;18.50;85.20
21108;DHT22;10712;52.944;9.098;2022-08-19T01:21:32;18.50;85.30
21108;DHT22;10712;52.944;9.098;2022-08-19T01:23:56;18.50;85.20
21108;DHT22;10712;52.944;9.098;2022-08-19T01:26:24;18.50;85.00
21108;DHT22;10712;52.944;9.098;2022-08-19T01:28:54;18.50;84.80
21108;DHT22;10712;52.944;9.098;2022-08-19T01:31:27;18.50;85.00
21108;DHT22;10712;52.944;9.098;2022-08-19T01:33:57;18.40;85.40
21108;DHT22;10712;52.944;9.098;2022-08-19T01:36:31;18.30;85.80
21108;DHT22;10712;52.944;9.098;2022-08-19T01:39:07;18.30;86.10
21108;DHT22;10712;52.944;9.098;2022-08-19T01:41:35;18.30;86.30
21108;DHT22;10712;52.944;9.098;2022-08-19T01:44:03;18.30;86.10
21108;DHT22;10712;52.944;9.098;2022-08-19T01:46:30;18.30;86.20
21108;DHT22;10712;52.944;9.098;2022-08-19T01:48:57;18.30;86.10
21108;DHT22;10712;52.944;9.098;2022-08-19T01:51:23;18.30;86.10
21108;DHT22;10712;52.944;9.098;2022-08-19T01:53:50;18.30;86.10
21108;DHT22;10712;52.944;9.098;2022-08-19T01:56:17;18.30;86.10
21108;DHT22;10712;52.944;9.098;2022-08-19T01:58:49;18.30;86.30
21108;DHT22;10712;52.944;9.098;2022-08-19T02:01:18;18.30;86.40
21108;DHT22;10712;52.944;9.098;2022-08-19T02:03:45;18.20;86.50
21108;DHT22;10712;52.944;9.098;2022-08-19T02:06:11;18.20;86.60
21108;DHT22;10712;52.944;9.098;2022-08-19T02:08:38;18.20;86.70
21108;DHT22;10712;52.944;9.098;2022-08-19T02:11:05;18.20;86.90
21108;DHT22;10712;52.944;9.098;2022-08-19T02:13:32;18.20;86.90
21108;DHT22;10712;52.944;9.098;2022-08-19T02:15:59;18.20;86.90
21108;DHT22;10712;52.944;9.098;2022-08-19T02:18:25;18.20;86.80
21108;DHT22;10712;52.944;9.098;2022-08-19T02:20:52;18.10;86.70
21108;DHT22;10712;52.944;9.098;2022-08-19T02:23:18;18.10;86.80
21108;DHT22;10712;52.944;9.098;2022-08-19T02:25:45;18.10;87.10
21108;DHT22;10712;52.944;9.098;2022-08-19T02:28:13;18.00;87.30
21108;DHT22;10712;52.944;9.098;2022-08-19T02:30:41;18.00;87.40
21108;DHT22;10712;52.944;9.098;2022-08-19T02:33:07;18.10;87.60
21108;DHT22;10712;52.944;9.098;2022-08-19T02:35:33;18.10;87.40
21108;DHT22;10712;52.944;9.098;2022-08-19T02:37:59;18.10;87.20
21108;DHT22;10712;52.944;9.098;2022-08-19T02:40:54;18.10;87.20
21108;DHT22;10712;52.944;9.098;2022-08-19T02:43:24;18.00;87.10
21108;DHT22;10712;52.944;9.098;2022-08-19T02:45:52;18.00;87.20
21108;DHT22;10712;52.944;9.098;2022-08-19T02:48:23;18.00;87.20
21108;DHT22;10712;52.944;9.098;2022-08-19T02:50:52;18.10;87.20
21108;DHT22;10712;52.944;9.098;2022-08-19T02:53:26;18.10;87.00
21108;DHT22;10712;52.944;9.098;2022-08-19T02:55:53;18.10;86.80
21108;DHT22;10712;52.944;9.098;2022-08-19T02:58:20;18.10;86.80
21108;DHT22;10712;52.944;9.098;2022-08-19T03:00:53;18.00;86.90
21108;DHT22;10712;52.944;9.098;2022-08-19T03:03:20;18.00;87.10
21108;DHT22;10712;52.944;9.098;2022-08-19T03:05:46;18.10;87.10
21108;DHT22;10712;52.944;9.098;2022-08-19T03:08:13;18.10;87.00
21108;DHT22;10712;52.944;9.098;2022-08-19T03:10:44;18.10;86.90
21108;DHT22;10712;52.944;9.098;2022-08-19T03:13:17;18.10;86.80
21108;DHT22;10712;52.944;9.098;2022-08-19T03:15:46;18.00;86.80
21108;DHT22;10712;52.944;9.098;2022-08-19T03:18:13;18.00;86.90
21108;DHT22;10712;52.944;9.098;2022-08-19T03:20:41;18.00;87.00
21108;DHT22;10712;52.944;9.098;2022-08-19T03:23:09;18.00;87.20
21108;DHT22;10712;52.944;9.098;2022-08-19T03:25:38;18.00;87.30
21108;DHT22;10712;52.944;9.098;2022-08-19T03:28:06;18.10;87.20
21108;DHT22;10712;52.944;9.098;2022-08-19T03:30:33;18.10;87.00
21108;DHT22;10712;52.944;9.098;2022-08-19T03:32:59;18.10;86.80
21108;DHT22;10712;52.944;9.098;2022-08-19T03:35:25;18.10;86.60
21108;DHT22;10712;52.944;9.098;2022-08-19T03:37:51;18.10;86.70
21108;DHT22;10712;52.944;9.098;2022-08-19T03:40:18;18.20;86.50
21108;DHT22;10712;52.944;9.098;2022-08-19T03:42:44;18.20;86.30
21108;DHT22;10712;52.944;9.098;2022-08-19T03:45:11;18.20;86.10
21108;DHT22;10712;52.944;9.098;2022-08-19T03:47:38;18.20;85.90
21108;DHT22;10712;52.944;9.098;2022-08-19T03:50:04;18.20;86.00
21108;DHT22;10712;52.944;9.098;2022-08-19T03:52:30;18.20;86.00
21108;DHT22;10712;52.944;9.098;2022-08-19T03:54:56;18.20;85.90
21108;DHT22;10712;52.944;9.098;2022-08-19T03:57:22;18.20;85.90
21108;DHT22;10712;52.944;9.098;2022-08-19T03:59:47;18.20;85.80
21108;DHT22;10712;52.944;9.098;2022-08-19T04:02:13;18.10;85.80
21108;DHT22;10712;52.944;9.098;2022-08-19T04:04:42;18.10;85.90
21108;DHT22;10712;52.944;9.098;2022-08-19T04:07:10;18.00;85.90
21108;DHT22;10712;52.944;9.098;2022-08-19T04:09:40;18.00;86.10
21108;DHT22;10712;52.944;9.098;2022-08-19T04:12:07;17.90;86.30
21108;DHT22;10712;52.944;9.098;2022-08-19T04:14:34;17.90;86.40
21108;DHT22;10712;52.944;9.098;2022-08-19T04:17:01;17.90;86.40
21108;DHT22;10712;52.944;9.098;2022-08-19T04:19:30;17.90;86.40
21108;DHT22;10712;52.944;9.098;2022-08-19T04:21:57;17.90;86.20
21108;DHT22;10712;52.944;9.098;2022-08-19T04:24:24;17.90;86.10
21108;DHT22;10712;52.944;9.098;2022-08-19T04:26:50;17.80;85.80
21108;DHT22;10712;52.944;9.098;2022-08-19T04:29:20;17.70;86.00
21108;DHT22;10712;52.944;9.098;2022-08-19T04:31:51;17.60;86.40
21108;DHT22;10712;52.944;9.098;2022-08-19T04:34:20;17.50;86.90
21108;DHT22;10712;52.944;9.098;2022-08-19T04:36:48;17.50;87.20
21108;DHT22;10712;52.944;9.098;2022-08-19T04:39:18;17.50;87.20
21108;DHT22;10712;52.944;9.098;2022-08-19T04:41:46;17.50;87.30
21108;DHT22;10712;52.944;9.098;2022-08-19T04:44:32;17.50;87.30
21108;DHT22;10712;52.944;9.098;2022-08-19T04:47:00;17.50;87.40
21108;DHT22;10712;52.944;9.098;2022-08-19T04:49:26;17.50;87.50
21108;DHT22;10712;52.944;9.098;2022-08-19T04:51:54;17.50;87.30
21108;DHT22;10712;52.944;9.098;2022-08-19T04:54:22;17.60;87.10
21108;DHT22;10712;52.944;9.098;2022-08-19T04:56:51;17.60;86.70
21108;DHT22;10712;52.944;9.098;2022-08-19T04:59:19;17.50;86.60
21108;DHT22;10712;52.944;9.098;2022-08-19T05:01:46;17.50;86.80
21108;DHT22;10712;52.944;9.098;2022-08-19T05:04:18;17.50;87.00
21108;DHT22;10712;52.944;9.098;2022-08-19T05:06:49;17.50;87.30
21108;DHT22;10712;52.944;9.098;2022-08-19T05:09:16;17.50;87.20
21108;DHT22;10712;52.944;9.098;2022-08-19T05:11:43;17.50;87.00
21108;DHT22;10712;52.944;9.098;2022-08-19T05:14:10;17.50;86.80
21108;DHT22;10712;52.944;9.098;2022-08-19T05:16:39;17.50;86.80
21108;DHT22;10712;52.944;9.098;2022-08-19T05:19:05;17.50;86.60
21108;DHT22;10712;52.944;9.098;2022-08-19T05:21:50;17.50;86.70
21108;DHT22;10712;52.944;9.098;2022-08-19T05:24:35;17.40;87.00
21108;DHT22;10712;52.944;9.098;2022-08-19T05:27:02;17.30;87.50
21108;DHT22;10712;52.944;9.098;2022-08-19T05:29:30;17.30;87.60
21108;DHT22;10712;52.944;9.098;2022-08-19T05:32:01;17.30;87.80
21108;DHT22;10712;52.944;9.098;2022-08-19T05:34:28;17.30;88.00
21108;DHT22;10712;52.944;9.098;2022-08-19T05:36:58;17.30;88.10
21108;DHT22;10712;52.944;9.098;2022-08-19T05:39:27;17.30;87.80
21108;DHT22;10712;52.944;9.098;2022-08-19T05:41:59;17.30;87.60
21108;DHT22;10712;52.944;9.098;2022-08-19T05:44:29;17.30;87.70
21108;DHT22;10712;52.944;9.098;2022-08-19T05:46:58;17.30;87.80
21108;DHT22;10712;52.944;9.098;2022-08-19T05:49:25;17.30;87.90
21108;DHT22;10712;52.944;9.098;2022-08-19T05:51:53;17.30;88.10
21108;DHT22;10712;52.944;9.098;2022-08-19T05:54:21;17.40;88.20
21108;DHT22;10712;52.944;9.098;2022-08-19T05:56:49;17.40;88.10
21108;DHT22;10712;52.944;9.098;2022-08-19T05:59:17;17.40;87.90
21108;DHT22;10712;52.944;9.098;2022-08-19T06:01:46;17.40;87.80
21108;DHT22;10712;52.944;9.098;2022-08-19T06:04:16;17.40;87.80
21108;DHT22;10712;52.944;9.098;2022-08-19T06:06:50;17.40;87.90
21108;DHT22;10712;52.944;9.098;2022-08-19T06:09:17;17.50;87.90
21108;DHT22;10712;52.944;9.098;2022-08-19T06:11:57;17.50;87.70
21108;DHT22;10712;52.944;9.098;2022-08-19T06:14:29;17.50;87.70
21108;DHT22;10712;52.944;9.098;2022-08-19T06:16:57;17.60;87.70
21108;DHT22;10712;52.944;9.098;2022-08-19T06:19:28;17.60;87.60
21108;DHT22;10712;52.944;9.098;2022-08-19T06:21:58;17.60;87.40
21108;DHT22;10712;52.944;9.098;2022-08-19T06:24:27;17.60;87.40
21108;DHT22;10712;52.944;9.098;2022-08-19T06:26:56;17.70;87.40
21108;DHT22;10712;52.944;9.098;2022-08-19T06:29:24;17.70;87.40
21108;DHT22;10712;52.944;9.098;2022-08-19T06:31:54;17.80;87.20
21108;DHT22;10712;52.944;9.098;2022-08-19T06:34:23;17.80;87.20
21108;DHT22;10712;52.944;9.098;2022-08-19T06:36:51;17.80;87.00
21108;DHT22;10712;52.944;9.098;2022-08-19T06:39:26;17.80;87.10
21108;DHT22;10712;52.944;9.098;2022-08-19T06:41:56;17.80;87.10
21108;DHT22;10712;52.944;9.098;2022-08-19T06:44:30;17.90;87.20
21108;DHT22;10712;52.944;9.098;2022-08-19T06:47:02;17.90;87.10
21108;DHT22;10712;52.944;9.098;2022-08-19T06:49:29;17.90;87.10
21108;DHT22;10712;52.944;9.098;2022-08-19T06:51:59;17.90;87.10
21108;DHT22;10712;52.944;9.098;2022-08-19T06:54:26;18.00;87.10
21108;DHT22;10712;52.944;9.098;2022-08-19T06:57:00;18.00;87.00
21108;DHT22;10712;52.944;9.098;2022-08-19T06:59:30;18.10;86.80
21108;DHT22;10712;52.944;9.098;2022-08-19T07:02:01;18.10;86.80
21108;DHT22;10712;52.944;9.098;2022-08-19T07:04:34;18.20;86.70
21108;DHT22;10712;52.944;9.098;2022-08-19T07:07:05;18.30;86.70
21108;DHT22;10712;52.944;9.098;2022-08-19T07:09:37;18.40;86.50
21108;DHT22;10712;52.944;9.098;2022-08-19T07:12:07;18.40;86.30
21108;DHT22;10712;52.944;9.098;2022-08-19T07:14:36;18.50;85.90
21108;DHT22;10712;52.944;9.098;2022-08-19T07:17:05;18.50;85.50
21108;DHT22;10712;52.944;9.098;2022-08-19T07:19:37;18.50;85.20
21108;DHT22;10712;52.944;9.098;2022-08-19T07:22:06;18.60;85.00
21108;DHT22;10712;52.944;9.098;2022-08-19T07:24:33;18.60;84.10
21108;DHT22;10712;52.944;9.098;2022-08-19T07:27:02;18.70;83.40
21108;DHT22;10712;52.944;9.098;2022-08-19T07:29:31;18.60;83.50
21108;DHT22;10712;52.944;9.098;2022-08-19T07:32:01;18.60;83.60
21108;DHT22;10712;52.944;9.098;2022-08-19T07:34:29;18.60;83.50
21108;DHT22;10712;52.944;9.098;2022-08-19T07:36:56;18.60;83.30
21108;DHT22;10712;52.944;9.098;2022-08-19T07:39:29;18.60;83.20
21108;DHT22;10712;52.944;9.098;2022-08-19T07:41:58;18.60;83.10
21108;DHT22;10712;52.944;9.098;2022-08-19T07:44:25;18.70;82.70
21108;DHT22;10712;52.944;9.098;2022-08-19T07:46:54;18.70;81.90
21108;DHT22;10712;52.944;9.098;2022-08-19T07:49:23;18.80;81.10
21108;DHT22;10712;52.944;9.098;2022-08-19T07:51:52;18.80;80.60
21108;DHT22;10712;52.944;9.098;2022-08-19T07:54:26;18.80;80.70
21108;DHT22;10712;52.944;9.098;2022-08-19T07:56:53;18.80;81.10
21108;DHT22;10712;52.944;9.098;2022-08-19T07:59:22;18.80;81.30
21108;DHT22;10712;52.944;9.098;2022-08-19T08:01:50;18.80;81.30
21108;DHT22;10712;52.944;9.098;2022-08-19T08:04:17;18.90;81.10
21108;DHT22;10712;52.944;9.098;2022-08-19T08:07:03;18.90;81.00
21108;DHT22;10712;52.944;9.098;2022-08-19T08:09:50;19.00;80.30
21108;DHT22;10712;52.944;9.098;2022-08-19T08:12:28;19.10;80.90
21108;DHT22;10712;52.944;9.098;2022-08-19T08:15:02;19.20;80.80
21108;DHT22;10712;52.944;9.098;2022-08-19T08:17:33;19.20;79.80
21108;DHT22;10712;52.944;9.098;2022-08-19T08:19:59;19.20;79.00
21108;DHT22;10712;52.944;9.098;2022-08-19T08:22:25;19.20;79.00
21108;DHT22;10712;52.944;9.098;2022-08-19T08:25:16;19.20;79.50
21108;DHT22;10712;52.944;9.098;2022-08-19T08:27:45;19.30;78.80
21108;DHT22;10712;52.944;9.098;2022-08-19T08:30:18;19.30;78.30
21108;DHT22;10712;52.944;9.098;2022-08-19T08:32:50;19.40;77.60
21108;DHT22;10712;52.944;9.098;2022-08-19T08:35:21;19.30;77.50
21108;DHT22;10712;52.944;9.098;2022-08-19T08:37:51;19.30;76.90
21108;DHT22;10712;52.944;9.098;2022-08-19T08:43:24;19.30;77.60
21108;DHT22;10712;52.944;9.098;2022-08-19T08:46:04;19.40;78.20
21108;DHT22;10712;52.944;9.098;2022-08-19T08:48:44;19.50;76.60
21108;DHT22;10712;52.944;9.098;2022-08-19T08:51:18;19.50;77.10
21108;DHT22;10712;52.944;9.098;2022-08-19T08:53:59;19.60;75.80
21108;DHT22;10712;52.944;9.098;2022-08-19T08:56:29;19.60;75.80
21108;DHT22;10712;52.944;9.098;2022-08-19T08:59:02;19.60;75.70
21108;DHT22;10712;52.944;9.098;2022-08-19T09:01:34;19.60;75.80
21108;DHT22;10712;52.944;9.098;2022-08-19T09:04:04;19.60;76.40
21108;DHT22;10712;52.944;9.098;2022-08-19T09:09:44;19.70;75.70
21108;DHT22;10712;52.944;9.098;2022-08-19T09:12:52;19.80;76.00
21108;DHT22;10712;52.944;9.098;2022-08-19T09:15:34;19.80;75.30
21108;DHT22;10712;52.944;9.098;2022-08-19T09:18:10;19.90;75.70
21108;DHT22;10712;52.944;9.098;2022-08-19T09:20:36;19.90;76.10
21108;DHT22;10712;52.944;9.098;2022-08-19T09:23:03;20.00;76.30
21108;DHT22;10712;52.944;9.098;2022-08-19T09:25:29;20.20;76.30
21108;DHT22;10712;52.944;9.098;2022-08-19T09:27:57;20.30;76.40
21108;DHT22;10712;52.944;9.098;2022-08-19T09:30:30;20.30;73.70
21108;DHT22;10712;52.944;9.098;2022-08-19T09:32:59;20.40;74.30
21108;DHT22;10712;52.944;9.098;2022-08-19T09:35:28;20.40;74.30
21108;DHT22;10712;52.944;9.098;2022-08-19T09:37:55;20.50;74.00
21108;DHT22;10712;52.944;9.098;2022-08-19T09:40:22;20.60;72.70
21108;DHT22;10712;52.944;9.098;2022-08-19T09:42:49;20.60;72.30
21108;DHT22;10712;52.944;9.098;2022-08-19T09:45:16;20.60;72.80
21108;DHT22;10712;52.944;9.098;2022-08-19T09:47:46;20.70;72.90
21108;DHT22;10712;52.944;9.098;2022-08-19T09:50:13;20.70;73.10
21108;DHT22;10712;52.944;9.098;2022-08-19T09:52:40;20.80;73.30
21108;DHT22;10712;52.944;9.098;2022-08-19T09:55:09;20.80;73.50
21108;DHT22;10712;52.944;9.098;2022-08-19T09:57:36;20.90;73.70
21108;DHT22;10712;52.944;9.098;2022-08-19T10:00:04;21.00;73.60
21108;DHT22;10712;52.944;9.098;2022-08-19T10:02:33;21.00;73.50
21108;DHT22;10712;52.944;9.098;2022-08-19T10:05:00;21.10;71.60
21108;DHT22;10712;52.944;9.098;2022-08-19T10:07:44;21.10;71.40
21108;DHT22;10712;52.944;9.098;2022-08-19T10:10:10;21.20;72.00
21108;DHT22;10712;52.944;9.098;2022-08-19T10:12:37;21.30;71.90
21108;DHT22;10712;52.944;9.098;2022-08-19T10:15:04;21.30;70.10
21108;DHT22;10712;52.944;9.098;2022-08-19T10:17:32;21.30;70.20
21108;DHT22;10712;52.944;9.098;2022-08-19T10:20:01;21.30;70.90
21108;DHT22;10712;52.944;9.098;2022-08-19T10:22:30;21.30;70.10
21108;DHT22;10712;52.944;9.098;2022-08-19T10:24:55;21.30;70.20
21108;DHT22;10712;52.944;9.098;2022-08-19T10:27:22;21.30;69.90
21108;DHT22;10712;52.944;9.098;2022-08-19T10:29:48;21.40;70.40
21108;DHT22;10712;52.944;9.098;2022-08-19T10:32:14;21.50;71.00
21108;DHT22;10712;52.944;9.098;2022-08-19T10:34:43;21.60;69.40
21108;DHT22;10712;52.944;9.098;2022-08-19T10:37:09;21.60;68.60
21108;DHT22;10712;52.944;9.098;2022-08-19T10:39:36;21.60;68.70
21108;DHT22;10712;52.944;9.098;2022-08-19T10:42:08;21.70;69.60
21108;DHT22;10712;52.944;9.098;2022-08-19T10:44:36;21.70;69.70
21108;DHT22;10712;52.944;9.098;2022-08-19T10:47:03;21.80;69.30
21108;DHT22;10712;52.944;9.098;2022-08-19T10:49:30;21.90;69.40
21108;DHT22;10712;52.944;9.098;2022-08-19T10:51:57;22.00;69.60
21108;DHT22;10712;52.944;9.098;2022-08-19T10:54:42;22.10;68.50
21108;DHT22;10712;52.944;9.098;2022-08-19T10:57:30;22.10;68.80
21108;DHT22;10712;52.944;9.098;2022-08-19T10:59:56;22.30;69.00
21108;DHT22;10712;52.944;9.098;2022-08-19T11:02:22;22.40;68.90
21108;DHT22;10712;52.944;9.098;2022-08-19T11:04:48;22.50;68.40
21108;DHT22;10712;52.944;9.098;2022-08-19T11:07:16;22.60;67.60
21108;DHT22;10712;52.944;9.098;2022-08-19T11:09:43;22.70;67.20
21108;DHT22;10712;52.944;9.098;2022-08-19T11:12:10;22.80;66.90
21108;DHT22;10712;52.944;9.098;2022-08-19T11:14:36;22.80;66.80
21108;DHT22;10712;52.944;9.098;2022-08-19T11:17:04;22.80;65.40
21108;DHT22;10712;52.944;9.098;2022-08-19T11:19:31;22.90;65.90
21108;DHT22;10712;52.944;9.098;2022-08-19T11:21:57;23.00;65.70
21108;DHT22;10712;52.944;9.098;2022-08-19T11:24:28;23.00;64.50
21108;DHT22;10712;52.944;9.098;2022-08-19T11:27:02;23.10;64.40
21108;DHT22;10712;52.944;9.098;2022-08-19T11:29:33;23.20;64.40
21108;DHT22;10712;52.944;9.098;2022-08-19T11:32:03;23.30;62.40
21108;DHT22;10712;52.944;9.098;2022-08-19T11:34:41;23.40;62.30
21108;DHT22;10712;52.944;9.098;2022-08-19T11:37:07;23.40;62.60
21108;DHT22;10712;52.944;9.098;2022-08-19T11:39:35;23.50;62.90
21108;DHT22;10712;52.944;9.098;2022-08-19T11:42:03;23.60;62.30
21108;DHT22;10712;52.944;9.098;2022-08-19T11:44:51;23.60;61.80
21108;DHT22;10712;52.944;9.098;2022-08-19T11:47:17;23.60;62.20
21108;DHT22;10712;52.944;9.098;2022-08-19T11:49:43;23.60;60.30
21108;DHT22;10712;52.944;9.098;2022-08-19T11:52:10;23.70;60.40
21108;DHT22;10712;52.944;9.098;2022-08-19T11:54:36;23.80;60.80
21108;DHT22;10712;52.944;9.098;2022-08-19T11:57:03;23.80;61.50
21108;DHT22;10712;52.944;9.098;2022-08-19T11:59:29;23.90;61.90
21108;DHT22;10712;52.944;9.098;2022-08-19T12:01:55;24.00;60.40
21108;DHT22;10712;52.944;9.098;2022-08-19T12:04:23;24.10;60.80
21108;DHT22;10712;52.944;9.098;2022-08-19T12:06:49;24.10;60.40
21108;DHT22;10712;52.944;9.098;2022-08-19T12:09:15;24.10;60.40
21108;DHT22;10712;52.944;9.098;2022-08-19T12:11:42;24.20;60.80
21108;DHT22;10712;52.944;9.098;2022-08-19T12:14:11;24.30;60.00
21108;DHT22;10712;52.944;9.098;2022-08-19T12:16:40;24.30;60.20
21108;DHT22;10712;52.944;9.098;2022-08-19T12:19:10;24.40;59.90
21108;DHT22;10712;52.944;9.098;2022-08-19T12:21:36;24.50;57.00
21108;DHT22;10712;52.944;9.098;2022-08-19T12:24:03;24.50;57.30
21108;DHT22;10712;52.944;9.098;2022-08-19T12:26:30;24.50;57.90
21108;DHT22;10712;52.944;9.098;2022-08-19T12:28:57;24.50;56.60
21108;DHT22;10712;52.944;9.098;2022-08-19T12:31:26;24.60;56.50
21108;DHT22;10712;52.944;9.098;2022-08-19T12:33:53;24.60;56.90
21108;DHT22;10712;52.944;9.098;2022-08-19T12:36:19;24.70;57.00
21108;DHT22;10712;52.944;9.098;2022-08-19T12:38:47;24.80;56.80
21108;DHT22;10712;52.944;9.098;2022-08-19T12:41:15;24.80;56.70
21108;DHT22;10712;52.944;9.098;2022-08-19T12:43:44;24.90;56.70
21108;DHT22;10712;52.944;9.098;2022-08-19T12:46:11;25.00;56.60
21108;DHT22;10712;52.944;9.098;2022-08-19T12:48:38;25.00;56.90
21108;DHT22;10712;52.944;9.098;2022-08-19T12:51:09;25.10;54.90
21108;DHT22;10712;52.944;9.098;2022-08-19T12:53:38;25.10;56.20
21108;DHT22;10712;52.944;9.098;2022-08-19T12:56:04;25.10;56.50
21108;DHT22;10712;52.944;9.098;2022-08-19T12:58:30;25.10;56.50
21108;DHT22;10712;52.944;9.098;2022-08-19T13:00:57;25.20;56.80
21108;DHT22;10712;52.944;9.098;2022-08-19T13:03:23;25.30;55.50
21108;DHT22;10712;52.944;9.098;2022-08-19T13:05:54;25.30;55.40
21108;DHT22;10712;52.944;9.098;2022-08-19T13:08:21;25.30;54.60
21108;DHT22;10712;52.944;9.098;2022-08-19T13:10:46;25.30;53.80
21108;DHT22;10712;52.944;9.098;2022-08-19T13:13:12;25.30;54.80
21108;DHT22;10712;52.944;9.098;2022-08-19T13:15:41;25.30;55.10
21108;DHT22;10712;52.944;9.098;2022-08-19T13:18:10;25.40;55.00
21108;DHT22;10712;52.944;9.098;2022-08-19T13:20:38;25.40;53.60
21108;DHT22;10712;52.944;9.098;2022-08-19T13:23:08;25.40;54.40
21108;DHT22;10712;52.944;9.098;2022-08-19T13:25:34;25.40;55.20
21108;DHT22;10712;52.944;9.098;2022-08-19T13:28:01;25.50;54.70
21108;DHT22;10712;52.944;9.098;2022-08-19T13:30:28;25.60;54.30
21108;DHT22;10712;52.944;9.098;2022-08-19T13:33:15;25.70;54.60
21108;DHT22;10712;52.944;9.098;2022-08-19T13:35:47;25.70;53.20
21108;DHT22;10712;52.944;9.098;2022-08-19T13:38:18;25.80;51.90
21108;DHT22;10712;52.944;9.098;2022-08-19T13:40:46;25.80;52.50
21108;DHT22;10712;52.944;9.098;2022-08-19T13:43:15;25.80;51.80
21108;DHT22;10712;52.944;9.098;2022-08-19T13:45:43;25.70;51.10
21108;DHT22;10712;52.944;9.098;2022-08-19T13:48:09;25.70;51.70
21108;DHT22;10712;52.944;9.098;2022-08-19T13:50:40;25.80;49.40
21108;DHT22;10712;52.944;9.098;2022-08-19T13:53:09;25.80;50.60
21108;DHT22;10712;52.944;9.098;2022-08-19T13:55:43;25.80;51.00
21108;DHT22;10712;52.944;9.098;2022-08-19T13:58:10;25.80;49.30
21108;DHT22;10712;52.944;9.098;2022-08-19T14:00:41;25.80;49.10
21108;DHT22;10712;52.944;9.098;2022-08-19T14:03:09;25.80;49.30
21108;DHT22;10712;52.944;9.098;2022-08-19T14:05:36;25.80;49.60
21108;DHT22;10712;52.944;9.098;2022-08-19T14:08:03;25.80;49.60
21108;DHT22;10712;52.944;9.098;2022-08-19T14:10:29;25.80;50.00
21108;DHT22;10712;52.944;9.098;2022-08-19T14:12:58;25.80;49.90
21108;DHT22;10712;52.944;9.098;2022-08-19T14:15:28;25.80;50.30
21108;DHT22;10712;52.944;9.098;2022-08-19T14:17:54;25.80;50.30
21108;DHT22;10712;52.944;9.098;2022-08-19T14:20:20;25.90;50.40
21108;DHT22;10712;52.944;9.098;2022-08-19T14:22:47;25.90;50.10
21108;DHT22;10712;52.944;9.098;2022-08-19T14:25:23;25.90;49.90
21108;DHT22;10712;52.944;9.098;2022-08-19T14:27:51;25.90;51.40
21108;DHT22;10712;52.944;9.098;2022-08-19T14:30:29;25.90;50.60
21108;DHT22;10712;52.944;9.098;2022-08-19T14:32:59;25.90;50.30
21108;DHT22;10712;52.944;9.098;2022-08-19T14:35:27;25.90;49.10
21108;DHT22;10712;52.944;9.098;2022-08-19T14:37:54;25.90;49.60
21108;DHT22;10712;52.944;9.098;2022-08-19T14:40:23;25.90;50.40
21108;DHT22;10712;52.944;9.098;2022-08-19T14:42:52;25.90;50.20
21108;DHT22;10712;52.944;9.098;2022-08-19T14:45:21;25.90;50.90
21108;DHT22;10712;52.944;9.098;2022-08-19T14:47:47;25.90;51.40
21108;DHT22;10712;52.944;9.098;2022-08-19T14:50:13;25.90;51.50
21108;DHT22;10712;52.944;9.098;2022-08-19T14:52:39;25.90;51.50
21108;DHT22;10712;52.944;9.098;2022-08-19T14:55:05;26.00;50.30
21108;DHT22;10712;52.944;9.098;2022-08-19T14:57:31;25.90;50.10
21108;DHT22;10712;52.944;9.098;2022-08-19T14:59:58;25.90;48.40
21108;DHT22;10712;52.944;9.098;2022-08-19T15:02:24;25.90;47.70
21108;DHT22;10712;52.944;9.098;2022-08-19T15:04:50;25.90;48.10
21108;DHT22;10712;52.944;9.098;2022-08-19T15:07:16;25.90;46.90
21108;DHT22;10712;52.944;9.098;2022-08-19T15:09:42;25.90;45.90
21108;DHT22;10712;52.944;9.098;2022-08-19T15:12:08;25.90;46.60
21108;DHT22;10712;52.944;9.098;2022-08-19T15:14:36;25.80;47.10
21108;DHT22;10712;52.944;9.098;2022-08-19T15:17:04;25.80;47.40
21108;DHT22;10712;52.944;9.098;2022-08-19T15:19:31;25.80;47.30
21108;DHT22;10712;52.944;9.098;2022-08-19T15:21:58;25.80;47.40
21108;DHT22;10712;52.944;9.098;2022-08-19T15:24:24;25.80;47.10
21108;DHT22;10712;52.944;9.098;2022-08-19T15:26:52;25.70;47.60
21108;DHT22;10712;52.944;9.098;2022-08-19T15:29:21;25.80;47.50
21108;DHT22;10712;52.944;9.098;2022-08-19T15:31:51;25.70;46.80
21108;DHT22;10712;52.944;9.098;2022-08-19T15:34:21;25.70;47.30
21108;DHT22;10712;52.944;9.098;2022-08-19T15:36:48;25.60;47.80
21108;DHT22;10712;52.944;9.098;2022-08-19T15:39:14;25.60;48.90
21108;DHT22;10712;52.944;9.098;2022-08-19T15:41:41;25.70;49.20
21108;DHT22;10712;52.944;9.098;2022-08-19T15:44:10;25.70;48.40
21108;DHT22;10712;52.944;9.098;2022-08-19T15:46:43;25.70;49.10
21108;DHT22;10712;52.944;9.098;2022-08-19T15:49:12;25.70;49.60